Terminal Aerodrome Forecast
Issued by NWS Charleston, WV

Current Version | Previous Version | Text Only | Print | Product List | Glossary Off
Versions: 1 2 3 4 5 6 7 8 9 10 11 12 13 14 15 16 17 18 19 20 21 22 23 24 25

438
FTUS41 KRLX 220538
TAFCRW
TAF
KCRW 220538Z 2206/2306 00000KT P6SM FEW150
     FM220900 00000KT 5SM BR SCT150
     FM221300 20005KT P6SM SCT050
     FM230400 00000KT 4SM BR SCT100=

USA.gov is the U.S. government's official web portal to all federal, state and local government web resources and services.